Terminal Aerodrome Forecast
Issued by NWS Mt. Holly, NJ

Home | Current Version | Previous Version | Text Only | Print | Product List | Glossary On
Versions: 1 2 3 4 5 6 7 8 9 10 11 12 13 14 15 16 17 18 19 20 21
727
FTUS41 KPHI 291122
TAFRDG
TAF
KRDG 291122Z 2912/3012 05004KT 4SM -SHRA OVC012
      TEMPO 2912/2914 2SM SHRA OVC006
     FM291800 09005KT 6SM BR VCSH BKN010
     FM292100 11006KT P6SM BKN015
     FM300000 11005KT P6SM BKN008
     FM300600 13004KT 2SM -DZ BR BKN003=

USA.gov is the U.S. government's official web portal to all federal, state and local government web resources and services.